createdAt,value
2019-05-09T00:00:39.682Z,12.60
2019-05-09T00:03:07.519Z,12.60
2019-05-09T00:05:35.273Z,12.60
2019-05-09T00:08:03.599Z,12.50
2019-05-09T00:10:39.539Z,12.40
2019-05-09T00:13:03.275Z,12.40
2019-05-09T00:15:33.090Z,12.30
2019-05-09T00:18:00.844Z,12.20
2019-05-09T00:20:38.480Z,12.20
2019-05-09T00:23:06.309Z,12.10
2019-05-09T00:25:34.251Z,12.10
2019-05-09T00:28:04.161Z,12.10
2019-05-09T00:30:50.030Z,12.10
2019-05-09T00:33:23.446Z,12.20
2019-05-09T00:35:53.319Z,12.20
2019-05-09T00:38:23.959Z,12.20
2019-05-09T00:40:58.401Z,12.20
2019-05-09T00:43:23.664Z,12.20
2019-05-09T00:46:10.712Z,12.20
2019-05-09T00:48:53.332Z,12.10
2019-05-09T00:51:23.299Z,12.10
2019-05-09T00:53:51.018Z,12.20
2019-05-09T00:56:19.516Z,12.20
2019-05-09T00:58:47.348Z,12.20
2019-05-09T01:01:15.232Z,12.20
2019-05-09T01:03:43.272Z,12.30
2019-05-09T01:06:13.203Z,12.30
2019-05-09T01:08:41.061Z,12.20
2019-05-09T01:11:12.384Z,12.20
2019-05-09T01:13:38.702Z,12.30
2019-05-09T01:16:06.681Z,12.30
2019-05-09T01:18:34.983Z,12.30
2019-05-09T01:21:03.990Z,12.40
2019-05-09T01:23:34.254Z,12.40
2019-05-09T01:26:03.871Z,12.40
2019-05-09T01:28:33.931Z,12.30
2019-05-09T01:31:03.951Z,12.30
2019-05-09T01:33:43.804Z,12.30
2019-05-09T01:36:11.595Z,12.30
2019-05-09T01:38:39.365Z,12.30
2019-05-09T01:41:07.327Z,12.30
2019-05-09T01:43:35.087Z,12.30
2019-05-09T01:46:04.015Z,12.30
2019-05-09T01:48:33.904Z,12.10
2019-05-09T01:51:03.207Z,12.10
2019-05-09T01:53:34.528Z,12.10
2019-05-09T01:56:03.762Z,12.00
2019-05-09T01:58:34.250Z,11.90
2019-05-09T02:01:04.219Z,11.90
2019-05-09T02:03:33.644Z,11.90
2019-05-09T02:06:03.458Z,11.80
2019-05-09T02:08:34.182Z,11.80
2019-05-09T02:11:03.675Z,11.80
2019-05-09T02:13:33.646Z,11.80
2019-05-09T02:16:23.556Z,11.80
2019-05-09T02:18:57.032Z,11.80
2019-05-09T02:21:25.029Z,11.70
2019-05-09T02:23:53.711Z,11.80
2019-05-09T02:26:23.871Z,11.80
2019-05-09T02:28:53.639Z,11.80
2019-05-09T02:31:24.166Z,11.80
2019-05-09T02:33:53.856Z,11.80
2019-05-09T02:36:20.781Z,11.90
2019-05-09T02:38:48.985Z,11.90
2019-05-09T02:41:19.784Z,12.00
2019-05-09T02:43:49.656Z,12.00
2019-05-09T02:46:31.525Z,12.10
2019-05-09T02:48:59.657Z,12.10
2019-05-09T02:51:29.200Z,12.10
2019-05-09T02:53:58.599Z,12.10
2019-05-09T02:56:29.445Z,12.10
2019-05-09T02:59:03.429Z,12.20
2019-05-09T03:01:41.252Z,12.10
2019-05-09T03:04:09.032Z,12.00
2019-05-09T03:06:38.856Z,12.00
2019-05-09T03:09:08.964Z,12.00
2019-05-09T03:11:38.793Z,12.00
2019-05-09T03:14:09.155Z,12.00
2019-05-09T03:16:39.453Z,12.00
2019-05-09T03:19:08.739Z,12.00
2019-05-09T03:21:41.132Z,12.00
2019-05-09T03:24:10.058Z,12.00
2019-05-09T03:26:40.442Z,12.00
2019-05-09T03:29:43.016Z,11.90
2019-05-09T03:32:10.803Z,11.90
2019-05-09T03:34:38.611Z,12.00
2019-05-09T03:37:08.448Z,12.00
2019-05-09T03:39:37.743Z,12.00
2019-05-09T03:42:07.848Z,12.00
2019-05-09T03:44:35.676Z,12.00
2019-05-09T03:47:13.615Z,12.00
2019-05-09T03:49:41.472Z,12.00
2019-05-09T03:52:09.251Z,12.00
2019-05-09T03:54:39.946Z,12.00
2019-05-09T03:57:28.326Z,12.00
2019-05-09T03:59:57.300Z,12.00
2019-05-09T04:02:25.362Z,12.00
2019-05-09T04:04:53.136Z,12.00
2019-05-09T04:07:21.092Z,12.00
2019-05-09T04:09:49.134Z,12.00
2019-05-09T04:12:18.089Z,12.00
2019-05-09T04:14:47.940Z,12.00
2019-05-09T04:17:18.151Z,12.00
2019-05-09T04:19:47.875Z,11.90
2019-05-09T04:22:18.006Z,11.90
2019-05-09T04:24:47.413Z,12.00
2019-05-09T04:27:22.753Z,12.00
2019-05-09T04:29:50.708Z,12.00
2019-05-09T04:32:18.494Z,12.10
2019-05-09T04:34:47.288Z,12.00
2019-05-09T04:37:15.318Z,12.10
2019-05-09T04:39:43.128Z,12.00
2019-05-09T04:42:10.919Z,12.10
2019-05-09T04:44:57.556Z,12.00
2019-05-09T04:47:23.999Z,12.10
2019-05-09T04:49:52.850Z,12.10
2019-05-09T04:52:20.650Z,12.10
2019-05-09T04:54:48.683Z,12.10
2019-05-09T04:57:17.864Z,12.20
2019-05-09T04:59:47.522Z,12.20
2019-05-09T05:02:27.584Z,12.20
2019-05-09T05:04:55.373Z,12.30
2019-05-09T05:07:23.189Z,12.30
2019-05-09T05:09:51.127Z,12.40
2019-05-09T05:12:18.955Z,12.40
2019-05-09T05:14:47.619Z,12.40
2019-05-09T05:17:17.775Z,12.50
2019-05-09T05:19:47.444Z,12.50
2019-05-09T05:22:29.283Z,12.50
2019-05-09T05:25:00.025Z,12.60
2019-05-09T05:27:27.992Z,12.70
2019-05-09T05:29:58.093Z,12.70
2019-05-09T05:32:34.422Z,12.70
2019-05-09T05:35:07.745Z,12.70
2019-05-09T05:37:35.537Z,12.80
2019-05-09T05:40:04.234Z,12.90
2019-05-09T05:42:32.053Z,12.80
2019-05-09T05:44:59.846Z,12.90
2019-05-09T05:47:39.788Z,12.90
2019-05-09T05:50:08.426Z,13.00
2019-05-09T05:52:37.525Z,13.00
2019-05-09T05:55:07.546Z,13.00
2019-05-09T05:57:35.256Z,13.00
2019-05-09T06:00:03.305Z,13.10
2019-05-09T06:02:31.094Z,13.10
2019-05-09T06:04:58.914Z,13.20
2019-05-09T06:07:28.486Z,13.20
2019-05-09T06:09:57.565Z,13.20
2019-05-09T06:12:27.654Z,13.20
2019-05-09T06:14:55.308Z,13.20
2019-05-09T06:17:23.130Z,13.20
2019-05-09T06:19:50.925Z,13.30
2019-05-09T06:22:18.735Z,13.30
2019-05-09T06:24:47.888Z,13.40
2019-05-09T06:27:18.101Z,13.50
2019-05-09T06:29:47.719Z,13.50
2019-05-09T06:32:15.582Z,13.60
2019-05-09T06:34:43.393Z,13.60
2019-05-09T06:37:11.603Z,13.60
2019-05-09T06:39:39.413Z,13.70
2019-05-09T06:42:09.017Z,13.90
2019-05-09T06:45:07.594Z,14.00
2019-05-09T06:47:38.163Z,14.10
2019-05-09T06:50:08.266Z,14.30
2019-05-09T06:52:37.553Z,14.50
2019-05-09T06:55:08.459Z,14.80
2019-05-09T06:57:40.092Z,15.20
2019-05-09T07:00:10.686Z,15.60
2019-05-09T07:03:03.890Z,16.00
2019-05-09T07:05:49.695Z,16.40
2019-05-09T07:08:31.998Z,16.80
2019-05-09T07:10:59.908Z,17.00
2019-05-09T07:13:27.714Z,17.80
2019-05-09T07:15:55.786Z,18.50
2019-05-09T07:18:23.572Z,19.10
2019-05-09T07:20:51.437Z,19.00
2019-05-09T07:23:19.210Z,19.30
2019-05-09T07:26:17.486Z,19.60
2019-05-09T07:28:45.382Z,20.00
2019-05-09T07:31:38.546Z,20.20
2019-05-09T07:34:19.498Z,20.50
2019-05-09T07:36:47.735Z,20.30
2019-05-09T07:39:17.605Z,19.60
2019-05-09T07:41:47.715Z,19.30
2019-05-09T07:44:15.196Z,19.70
2019-05-09T07:46:50.175Z,20.40
2019-05-09T07:49:18.008Z,21.30
2019-05-09T07:51:47.755Z,22.40
2019-05-09T07:54:22.060Z,23.20
2019-05-09T07:56:45.505Z,23.60
2019-05-09T07:59:13.422Z,23.70
2019-05-09T08:01:41.183Z,23.60
2019-05-09T08:04:08.994Z,23.10
2019-05-09T08:06:37.989Z,23.60
2019-05-09T08:09:08.370Z,23.90
2019-05-09T08:11:37.684Z,24.20
2019-05-09T08:14:10.445Z,24.60
2019-05-09T08:16:37.780Z,24.70
2019-05-09T08:19:07.329Z,25.20
2019-05-09T08:21:34.839Z,25.70
2019-05-09T08:24:02.683Z,26.10
2019-05-09T08:26:30.505Z,26.50
2019-05-09T08:28:59.649Z,26.70
2019-05-09T08:31:28.188Z,26.50
2019-05-09T08:33:59.033Z,26.20
2019-05-09T08:36:28.003Z,26.10
2019-05-09T08:38:58.390Z,26.70
2019-05-09T08:41:25.479Z,28.00
2019-05-09T08:43:53.329Z,28.20
2019-05-09T08:46:21.121Z,27.40
2019-05-09T08:48:48.909Z,26.50
2019-05-09T08:52:05.979Z,26.70
2019-05-09T08:54:38.031Z,26.90
2019-05-09T08:57:07.666Z,27.30
2019-05-09T08:59:35.430Z,28.40
2019-05-09T09:02:15.294Z,29.90
2019-05-09T09:04:33.170Z,30.80
2019-05-09T09:07:01.029Z,30.60
2019-05-09T09:09:28.818Z,30.40
2019-05-09T09:11:58.311Z,30.10
2019-05-09T09:14:27.879Z,29.50
2019-05-09T09:16:57.568Z,27.70
2019-05-09T09:19:27.874Z,27.10
2019-05-09T09:21:59.622Z,26.50
2019-05-09T09:24:24.988Z,25.80
2019-05-09T09:26:52.802Z,25.30
2019-05-09T09:29:21.812Z,25.20
2019-05-09T09:31:49.596Z,24.90
2019-05-09T09:34:18.185Z,25.10
2019-05-09T09:36:48.070Z,26.50
2019-05-09T09:39:18.352Z,26.80
2019-05-09T09:41:48.145Z,28.10
2019-05-09T09:44:17.797Z,30.10
2019-05-09T09:46:44.990Z,30.50
2019-05-09T09:49:12.808Z,29.40
2019-05-09T09:51:40.636Z,29.00
2019-05-09T09:54:09.060Z,30.20
2019-05-09T09:56:38.638Z,31.50
2019-05-09T09:59:18.888Z,32.30
2019-05-09T10:01:47.823Z,33.40
2019-05-09T10:04:23.870Z,34.90
2019-05-09T10:06:48.222Z,33.10
2019-05-09T10:09:17.500Z,32.70
2019-05-09T10:11:48.124Z,33.60
2019-05-09T10:14:20.161Z,34.70
2019-05-09T10:17:10.510Z,35.40
2019-05-09T10:20:13.106Z,36.50
2019-05-09T10:22:46.340Z,37.50
2019-05-09T10:25:10.668Z,37.70
2019-05-09T10:27:38.770Z,37.10
2019-05-09T10:30:09.098Z,36.80
2019-05-09T10:32:38.341Z,37.10
2019-05-09T10:35:08.605Z,36.60
2019-05-09T10:37:39.287Z,37.10
2019-05-09T10:40:06.091Z,35.90
2019-05-09T10:43:02.319Z,36.50
2019-05-09T10:45:49.714Z,36.60
2019-05-09T10:48:23.799Z,37.00
2019-05-09T10:50:53.818Z,36.00
2019-05-09T10:53:18.013Z,35.70
2019-05-09T10:55:48.058Z,34.30
2019-05-09T10:58:15.644Z,33.30
2019-05-09T11:00:43.460Z,33.30
2019-05-09T11:03:11.304Z,32.10
2019-05-09T11:05:39.315Z,31.10
2019-05-09T11:08:08.206Z,31.60
2019-05-09T11:10:38.839Z,32.70
2019-05-09T11:13:07.571Z,32.70
2019-05-09T11:15:37.487Z,33.80
2019-05-09T11:18:07.901Z,35.40
2019-05-09T11:20:35.164Z,35.10
2019-05-09T11:23:02.966Z,33.70
2019-05-09T11:25:30.756Z,31.80
2019-05-09T11:28:09.921Z,31.40
2019-05-09T11:30:28.325Z,30.10
2019-05-09T11:32:56.188Z,28.90
2019-05-09T11:35:23.999Z,28.00
2019-05-09T11:37:51.816Z,27.20
2019-05-09T11:40:19.637Z,26.70
2019-05-09T11:42:48.256Z,26.50
2019-05-09T11:45:18.089Z,26.30
2019-05-09T11:47:46.716Z,25.90
2019-05-09T11:50:15.011Z,25.30
2019-05-09T11:52:42.823Z,26.80
2019-05-09T11:55:28.659Z,29.30
2019-05-09T11:57:40.390Z,29.80
2019-05-09T12:00:09.114Z,30.10
2019-05-09T12:02:38.530Z,31.50
2019-05-09T12:05:08.723Z,31.60
2019-05-09T12:07:37.933Z,30.00
2019-05-09T12:10:07.828Z,30.70
2019-05-09T12:12:38.841Z,32.10
2019-05-09T12:15:08.576Z,33.50
2019-05-09T12:20:12.305Z,32.90
2019-05-09T12:22:36.344Z,30.60
2019-05-09T12:25:04.481Z,28.70
2019-05-09T12:27:32.381Z,27.30
2019-05-09T12:30:00.212Z,27.00
2019-05-09T12:32:28.479Z,28.60
2019-05-09T12:34:57.739Z,30.00
2019-05-09T12:37:27.999Z,30.90
2019-05-09T12:39:55.615Z,32.50
2019-05-09T12:42:23.426Z,33.80
2019-05-09T12:44:51.132Z,34.80
2019-05-09T12:47:19.259Z,35.30
2019-05-09T12:49:48.781Z,35.70
2019-05-09T12:52:18.572Z,36.00
2019-05-09T12:54:48.355Z,36.00
2019-05-09T12:57:18.920Z,36.00
2019-05-09T12:59:49.821Z,36.10
2019-05-09T13:02:17.755Z,36.00
2019-05-09T13:04:47.505Z,34.30
2019-05-09T13:07:15.147Z,31.50
2019-05-09T13:09:43.001Z,29.50
2019-05-09T13:12:11.030Z,29.70
2019-05-09T13:14:39.095Z,30.60
2019-05-09T13:17:13.504Z,31.90
2019-05-09T13:19:44.151Z,32.10
2019-05-09T13:22:11.967Z,31.30
2019-05-09T13:24:39.888Z,32.20
2019-05-09T13:27:08.081Z,32.60
2019-05-09T13:29:38.120Z,33.30
2019-05-09T13:32:05.802Z,33.50
2019-05-09T13:34:33.655Z,31.60
2019-05-09T13:37:01.445Z,31.00
2019-05-09T13:39:29.344Z,31.60
2019-05-09T13:41:58.307Z,32.60
2019-05-09T13:44:27.713Z,32.10
2019-05-09T13:46:58.225Z,30.80
2019-05-09T13:49:25.487Z,29.40
2019-05-09T13:52:00.377Z,28.40
2019-05-09T13:54:23.165Z,27.80
2019-05-09T13:56:57.583Z,27.90
2019-05-09T13:59:20.883Z,28.30
2019-05-09T14:01:48.842Z,28.50
2019-05-09T14:04:16.665Z,28.30
2019-05-09T14:06:44.521Z,27.70
2019-05-09T14:09:12.337Z,26.70
2019-05-09T14:11:40.270Z,25.90
2019-05-09T14:14:08.045Z,25.20
2019-05-09T14:16:38.782Z,24.70
2019-05-09T14:19:28.700Z,24.30
2019-05-09T14:21:35.316Z,24.00
2019-05-09T14:24:14.147Z,23.50
2019-05-09T14:26:32.896Z,23.00
2019-05-09T14:29:00.684Z,22.60
2019-05-09T14:31:32.257Z,22.30
2019-05-09T14:33:58.197Z,22.10
2019-05-09T14:36:27.729Z,22.20
2019-05-09T14:38:58.038Z,22.40
2019-05-09T14:41:27.624Z,22.40
2019-05-09T14:43:55.321Z,22.40
2019-05-09T14:46:23.585Z,22.40
2019-05-09T14:48:51.888Z,22.40
2019-05-09T14:51:19.886Z,22.30
2019-05-09T14:53:48.553Z,22.20
2019-05-09T14:56:16.575Z,22.20
2019-05-09T14:58:44.373Z,22.00
2019-05-09T15:01:12.331Z,22.00
2019-05-09T15:03:40.128Z,22.00
2019-05-09T15:06:07.943Z,21.90
2019-05-09T15:08:38.027Z,21.70
2019-05-09T15:11:08.656Z,21.40
2019-05-09T15:13:35.612Z,21.20
2019-05-09T15:16:08.727Z,21.20
2019-05-09T15:18:35.823Z,21.20
2019-05-09T15:21:04.058Z,21.20
2019-05-09T15:23:31.865Z,21.30
2019-05-09T15:25:59.660Z,21.30
2019-05-09T15:28:29.118Z,21.30
2019-05-09T15:30:59.370Z,21.40
2019-05-09T15:33:27.609Z,21.30
2019-05-09T15:35:55.540Z,21.30
2019-05-09T15:38:23.367Z,21.20
2019-05-09T15:40:51.159Z,21.10
2019-05-09T15:43:18.998Z,21.00
2019-05-09T15:45:53.366Z,20.90
2019-05-09T15:48:21.764Z,20.70
2019-05-09T15:50:49.612Z,20.60
2019-05-09T15:53:18.447Z,20.50
2019-05-09T15:55:48.069Z,20.50
2019-05-09T15:58:18.805Z,20.60
2019-05-09T16:00:47.807Z,20.60
2019-05-09T16:03:15.423Z,20.60
2019-05-09T16:05:43.240Z,20.60
2019-05-09T16:08:11.658Z,20.70
2019-05-09T16:10:39.625Z,20.90
2019-05-09T16:13:08.197Z,21.00
2019-05-09T16:15:38.189Z,21.00
2019-05-09T16:18:08.428Z,20.90
2019-05-09T16:20:38.465Z,20.90
2019-05-09T16:23:08.188Z,20.80
2019-05-09T16:25:35.032Z,20.70
2019-05-09T16:28:02.942Z,20.70
2019-05-09T16:30:30.721Z,20.60
2019-05-09T16:32:58.706Z,20.60
2019-05-09T16:35:28.630Z,20.50
2019-05-09T16:38:05.283Z,20.40
2019-05-09T16:40:27.971Z,20.20
2019-05-09T16:42:58.091Z,20.00
2019-05-09T16:45:25.875Z,19.80
2019-05-09T16:47:53.658Z,19.50
2019-05-09T16:50:21.789Z,19.20
2019-05-09T16:52:49.625Z,18.90
2019-05-09T16:55:22.611Z,18.80
2019-05-09T16:57:50.442Z,18.60
2019-05-09T17:00:38.259Z,18.50
2019-05-09T17:03:08.007Z,18.40
2019-05-09T17:05:37.419Z,18.40
2019-05-09T17:08:05.375Z,18.30
2019-05-09T17:10:33.202Z,18.20
2019-05-09T17:13:00.999Z,18.20
2019-05-09T17:15:29.339Z,18.10
2019-05-09T17:17:57.266Z,18.20
2019-05-09T17:20:30.965Z,18.10
2019-05-09T17:23:15.219Z,18.10
2019-05-09T17:25:43.274Z,18.20
2019-05-09T17:28:11.176Z,18.10
2019-05-09T17:30:39.141Z,18.10
2019-05-09T17:33:07.881Z,18.00
2019-05-09T17:35:35.837Z,18.00
2019-05-09T17:38:03.642Z,17.90
2019-05-09T17:40:31.436Z,17.80
2019-05-09T17:42:59.502Z,17.70
2019-05-09T17:45:27.347Z,17.60
2019-05-09T17:47:55.127Z,17.50
2019-05-09T17:50:22.922Z,17.50
2019-05-09T17:52:50.768Z,17.40
2019-05-09T17:55:18.560Z,17.30
2019-05-09T17:57:47.950Z,17.30
2019-05-09T18:00:21.676Z,17.30
2019-05-09T18:02:48.616Z,17.20
2019-05-09T18:05:16.678Z,17.10
2019-05-09T18:07:44.463Z,17.10
2019-05-09T18:10:13.917Z,17.10
2019-05-09T18:12:41.722Z,17.10
2019-05-09T18:15:10.069Z,17.00
2019-05-09T18:17:38.368Z,17.00
2019-05-09T18:20:08.060Z,17.00
2019-05-09T18:22:35.992Z,17.00
2019-05-09T18:25:04.787Z,17.00
2019-05-09T18:27:32.595Z,16.90
2019-05-09T18:30:00.457Z,16.80
2019-05-09T18:32:40.325Z,16.80
2019-05-09T18:35:16.513Z,16.70
2019-05-09T18:37:44.344Z,16.70
2019-05-09T18:40:12.139Z,16.50
2019-05-09T18:42:39.968Z,16.50
2019-05-09T18:45:08.824Z,16.40
2019-05-09T18:47:36.658Z,16.40
2019-05-09T18:50:05.558Z,16.40
2019-05-09T18:52:33.371Z,16.40
2019-05-09T18:55:01.182Z,16.40
2019-05-09T18:57:29.053Z,16.40
2019-05-09T18:59:56.861Z,16.30
2019-05-09T19:02:24.743Z,16.30
2019-05-09T19:04:52.546Z,16.20
2019-05-09T19:07:22.778Z,16.20
2019-05-09T19:09:50.058Z,16.10
2019-05-09T19:12:18.033Z,16.00
2019-05-09T19:14:47.190Z,15.90
2019-05-09T19:17:40.650Z,15.90
2019-05-09T19:20:34.408Z,15.80
2019-05-09T19:23:02.329Z,15.80
2019-05-09T19:25:30.653Z,15.70
2019-05-09T19:27:58.449Z,15.70
2019-05-09T19:30:26.352Z,15.60
2019-05-09T19:32:54.176Z,15.60
2019-05-09T19:35:22.054Z,15.60
2019-05-09T19:37:49.929Z,15.60
2019-05-09T19:40:20.141Z,15.60
2019-05-09T19:42:47.496Z,15.60
2019-05-09T19:45:15.625Z,15.60
2019-05-09T19:47:43.464Z,15.70
2019-05-09T19:50:11.710Z,15.70
2019-05-09T19:52:39.599Z,15.70
2019-05-09T19:55:07.533Z,15.70
2019-05-09T19:57:35.387Z,15.70
2019-05-09T20:00:03.684Z,15.60
2019-05-09T20:02:32.339Z,15.60
2019-05-09T20:05:00.171Z,15.50
2019-05-09T20:07:28.014Z,15.40
2019-05-09T20:10:02.601Z,15.40
2019-05-09T20:12:40.342Z,15.40
2019-05-09T20:15:10.067Z,15.40
2019-05-09T20:17:37.862Z,15.30
2019-05-09T20:20:06.348Z,15.30
2019-05-09T20:22:34.191Z,15.30
2019-05-09T20:25:02.016Z,15.20
2019-05-09T20:27:29.830Z,15.10
2019-05-09T20:29:57.657Z,15.10
2019-05-09T20:32:25.514Z,15.10
2019-05-09T20:34:53.334Z,15.00
2019-05-09T20:37:21.120Z,15.00
2019-05-09T20:39:49.073Z,15.00
2019-05-09T20:42:16.926Z,14.90
2019-05-09T20:44:44.797Z,14.90
2019-05-09T20:47:12.616Z,14.80
2019-05-09T20:49:41.214Z,14.80
2019-05-09T20:52:09.101Z,14.80
2019-05-09T20:54:37.007Z,14.80
2019-05-09T20:57:04.767Z,14.80
2019-05-09T20:59:32.572Z,14.80
2019-05-09T21:02:00.431Z,14.80
2019-05-09T21:04:28.319Z,14.70
2019-05-09T21:06:56.277Z,14.70
2019-05-09T21:09:24.342Z,14.70
2019-05-09T21:11:52.161Z,14.70
2019-05-09T21:14:19.974Z,14.60
2019-05-09T21:16:47.809Z,14.60
2019-05-09T21:19:15.663Z,14.70
2019-05-09T21:21:43.535Z,14.70
2019-05-09T21:24:11.447Z,14.70
2019-05-09T21:26:39.238Z,14.70
2019-05-09T21:29:07.052Z,14.70
2019-05-09T21:31:34.851Z,14.60
2019-05-09T21:34:02.821Z,14.50
2019-05-09T21:36:30.629Z,14.50
2019-05-09T21:38:58.392Z,14.40
2019-05-09T21:41:26.216Z,14.40
2019-05-09T21:43:54.210Z,14.30
2019-05-09T21:46:22.098Z,14.30
2019-05-09T21:48:49.884Z,14.20
2019-05-09T21:51:17.715Z,14.20
2019-05-09T21:53:45.594Z,14.10
2019-05-09T21:56:13.443Z,14.10
2019-05-09T21:58:41.237Z,14.10
2019-05-09T22:01:15.646Z,14.10
2019-05-09T22:03:43.541Z,14.00
2019-05-09T22:06:11.475Z,14.00
2019-05-09T22:08:39.425Z,13.90
2019-05-09T22:11:07.245Z,13.90
2019-05-09T22:13:35.035Z,13.80
2019-05-09T22:16:03.093Z,13.80
2019-05-09T22:18:30.886Z,13.70
2019-05-09T22:20:58.713Z,13.70
2019-05-09T22:23:26.807Z,13.70
2019-05-09T22:25:54.659Z,13.70
2019-05-09T22:28:22.424Z,13.70
2019-05-09T22:30:50.420Z,13.70
2019-05-09T22:33:18.198Z,13.60
2019-05-09T22:35:46.006Z,13.70
2019-05-09T22:38:13.853Z,13.60
2019-05-09T22:40:41.688Z,13.60
2019-05-09T22:43:09.531Z,13.50
2019-05-09T22:45:37.636Z,13.50
2019-05-09T22:48:05.438Z,13.40
2019-05-09T22:50:33.235Z,13.30
2019-05-09T22:53:01.039Z,13.30
2019-05-09T22:55:28.899Z,13.20
2019-05-09T22:57:56.719Z,13.20
2019-05-09T23:00:24.677Z,13.20
2019-05-09T23:02:52.594Z,13.20
2019-05-09T23:05:20.354Z,13.20
2019-05-09T23:07:48.167Z,13.20
2019-05-09T23:10:16.269Z,13.20
2019-05-09T23:12:44.090Z,13.20
2019-05-09T23:15:16.220Z,13.20
2019-05-09T23:17:44.194Z,13.20
2019-05-09T23:20:33.362Z,13.20
2019-05-09T23:23:22.376Z,13.20
2019-05-09T23:25:50.572Z,13.20
2019-05-09T23:28:21.475Z,13.20
2019-05-09T23:30:51.866Z,13.20
2019-05-09T23:33:20.857Z,13.20
2019-05-09T23:35:50.722Z,13.20
2019-05-09T23:38:18.758Z,13.20
2019-05-09T23:40:46.979Z,13.20
2019-05-09T23:43:14.766Z,13.10
2019-05-09T23:45:44.108Z,13.10
2019-05-09T23:48:13.573Z,13.10
2019-05-09T23:50:41.555Z,13.10
2019-05-09T23:53:09.653Z,13.10
2019-05-09T23:55:59.659Z,13.10
2019-05-09T23:58:45.707Z,13.10
